createdAt,value
2018-07-03T14:48:38.986Z,3.22
2018-07-03T14:53:44.513Z,2.70
2018-07-03T14:58:49.263Z,3.60
2018-07-03T15:03:54.248Z,3.67
2018-07-03T15:08:59.614Z,2.98
2018-07-03T15:14:04.617Z,3.67
2018-07-03T15:19:14.572Z,2.90
2018-07-03T15:24:19.647Z,3.00
2018-07-03T15:29:24.240Z,2.40
2018-07-03T15:34:28.988Z,2.50
2018-07-03T15:39:34.055Z,2.50
2018-07-03T15:44:49.817Z,3.17
2018-07-03T15:49:54.567Z,2.95
2018-07-03T15:54:59.485Z,2.37
2018-07-03T16:00:05.136Z,2.50
2018-07-03T16:05:20.863Z,2.42
2018-07-03T16:10:26.023Z,2.40
2018-07-03T16:15:30.724Z,2.22
2018-07-03T16:20:39.885Z,2.62
2018-07-03T16:25:44.204Z,2.80
2018-07-03T16:30:48.810Z,2.35
2018-07-03T16:35:53.678Z,2.27
2018-07-03T16:40:58.294Z,2.52
2018-07-03T16:46:03.759Z,2.72
2018-07-03T16:51:08.729Z,2.50
2018-07-03T16:56:13.434Z,3.42
2018-07-03T17:01:18.280Z,3.98
2018-07-03T17:06:23.833Z,3.10
2018-07-03T17:11:28.542Z,2.12
2018-07-03T17:16:33.415Z,2.62
2018-07-03T17:21:37.730Z,2.25
2018-07-03T17:26:42.375Z,2.20
2018-07-03T17:31:47.123Z,2.50
2018-07-03T17:36:51.916Z,2.30
2018-07-03T17:42:08.563Z,2.65
2018-07-03T17:47:14.198Z,2.75
2018-07-03T17:52:19.461Z,2.20
2018-07-03T17:57:24.197Z,3.35
2018-07-03T18:02:29.931Z,3.40
2018-07-03T18:07:35.097Z,3.37
2018-07-03T18:12:39.808Z,4.40
2018-07-03T18:17:44.681Z,4.28
2018-07-03T18:22:49.569Z,4.95
2018-07-03T18:27:54.359Z,4.40
2018-07-03T18:32:59.257Z,4.67
2018-07-03T18:38:04.356Z,4.30
2018-07-03T18:43:09.445Z,4.35
2018-07-03T18:48:14.520Z,4.40
2018-07-03T18:53:19.472Z,3.90
2018-07-03T18:58:23.785Z,4.10
2018-07-03T19:03:28.753Z,5.80
2018-07-03T19:08:33.671Z,3.92
2018-07-03T19:13:38.276Z,4.80
2018-07-03T19:18:42.968Z,4.30
2018-07-03T19:23:48.096Z,5.25
2018-07-03T19:28:52.856Z,4.30
2018-07-03T19:33:57.875Z,4.45
2018-07-03T19:39:02.866Z,4.83
2018-07-03T19:44:07.642Z,4.55
2018-07-03T19:49:12.760Z,4.95
2018-07-03T19:54:18.006Z,5.58
2018-07-03T19:59:23.774Z,4.53
2018-07-03T20:04:28.834Z,4.35
2018-07-03T20:09:34.346Z,4.55
2018-07-03T20:14:39.551Z,4.62
2018-07-03T20:19:44.721Z,4.47
2018-07-03T20:24:49.786Z,4.67
2018-07-03T20:29:55.080Z,5.20
2018-07-03T20:35:00.011Z,4.87
2018-07-03T20:40:05.683Z,6.83
2018-07-03T20:45:10.657Z,5.75
2018-07-03T20:50:15.665Z,5.53
2018-07-03T20:55:20.532Z,5.25
2018-07-03T21:00:25.594Z,5.85
2018-07-03T21:05:30.558Z,6.22
2018-07-03T21:10:35.641Z,5.55
2018-07-03T21:15:40.651Z,6.00
2018-07-03T21:20:45.725Z,6.40
2018-07-03T21:25:50.635Z,6.35
2018-07-03T21:30:55.637Z,5.78
2018-07-03T21:36:00.542Z,5.05
2018-07-03T21:41:05.330Z,5.20
2018-07-03T21:46:10.164Z,5.80
2018-07-03T21:51:15.696Z,5.72
2018-07-03T21:56:20.470Z,6.25
2018-07-03T22:01:25.642Z,6.20
2018-07-03T22:06:30.685Z,7.08
2018-07-03T22:11:35.620Z,7.53
2018-07-03T22:16:40.742Z,8.68
2018-07-03T22:21:45.504Z,8.43
2018-07-03T22:26:50.686Z,7.22
2018-07-03T22:31:56.014Z,7.87
2018-07-03T22:37:01.895Z,7.72
2018-07-03T22:42:07.750Z,7.15
2018-07-03T22:47:12.911Z,6.72
2018-07-03T22:52:17.827Z,7.40
2018-07-03T22:57:22.662Z,7.25
2018-07-03T23:02:27.398Z,8.00
2018-07-03T23:07:31.994Z,6.92
2018-07-03T23:12:36.743Z,7.62
2018-07-03T23:17:41.351Z,6.90
2018-07-03T23:22:46.334Z,7.47
2018-07-03T23:27:50.960Z,6.75
2018-07-03T23:32:55.716Z,7.17
2018-07-03T23:38:00.552Z,7.00
2018-07-03T23:43:05.898Z,6.05
2018-07-03T23:48:21.811Z,6.08
2018-07-03T23:53:37.412Z,6.10
2018-07-03T23:58:53.108Z,7.08
